Accueil
METAR-TAF:

METAR-TAF

Aéroports :

Paderborn-Lippstadt, Allemagne

latitude: 51-37N, longitude: 008-37E, altitude: 213 m

Observation

Le bulletin a été fait il y a 33 minutes, à 18:20 UTC
Vent 6 kt de ouest, variant entre sud-ouest et ouest/nord-ouest
Température 9°C
Humidité 53%
Pression 1017 hPa
Visibilité 10 km ou plus
Quelques nuages à une hauteur de 4400 ft

METAR: EDLP 071820Z 26006KT 220V300 9999 FEW044 09/00 Q1017

Heure: 20:53 (18:53 UTC)

Prévision

Le bulletin a été fait il y a 1 heure et 53 minutes, à 17:00 UTC
Prévision valable du 07 à 18 UTC au 08 à 18 UTC
Vent 8 kt de ouest
Visibilité 10 km ou plus
pas de nuages en-dessous de 1500 mètres et pas de cumulonimbus.
Evoluant progressivement
du 07 à 19 UTC au 07 à 22 UTC
Vent 7 kt de sud
Evoluant progressivement
du 08 à 13 UTC au 08 à 16 UTC
Vent 12 kt de sud/sud-est

TAF: EDLP 071700Z 0718/0818 27008KT CAVOK BECMG 0719/0722 17007KT BECMG 0813/0816 16012KT

Observations et prévisions météorologiques de plus de 4000 aéroports (messages METAR et TAF).

Les stations disponibles sont représentées par des disques jaunes et rouges sur la carte.

Passer la souris dessus pour voir le nom de la station.

Cliquer dessus pour voir les observations et prévisions météorologiques.

Pour changer de carte: cliquez sur les boutons verts avec une croix noire pour zoomer, sur le bouton vert avec un tiret pour effectuer un zoom arrière, ou sur les flèches vertes pour les cartes adjacentes.


METAR-TAF: